sensor_id;sensor_type;location;lat;lon;timestamp;temperature;humidity
40676;DHT22;26359;48.750;9.314;2022-08-02T00:01:27;18.10;99.90
40676;DHT22;26359;48.750;9.314;2022-08-02T00:03:52;18.00;99.90
40676;DHT22;26359;48.750;9.314;2022-08-02T00:06:18;18.00;99.90
40676;DHT22;26359;48.750;9.314;2022-08-02T00:08:44;18.00;99.90
40676;DHT22;26359;48.750;9.314;2022-08-02T00:11:09;18.10;99.90
40676;DHT22;26359;48.750;9.314;2022-08-02T00:13:35;18.10;99.90
40676;DHT22;26359;48.750;9.314;2022-08-02T00:16:00;18.00;99.90
40676;DHT22;26359;48.750;9.314;2022-08-02T00:18:26;18.00;99.90
40676;DHT22;26359;48.750;9.314;2022-08-02T00:20:51;18.00;99.90
40676;DHT22;26359;48.750;9.314;2022-08-02T00:23:17;18.00;99.90
40676;DHT22;26359;48.750;9.314;2022-08-02T00:25:42;18.00;99.90
40676;DHT22;26359;48.750;9.314;2022-08-02T00:28:08;18.00;99.90
40676;DHT22;26359;48.750;9.314;2022-08-02T00:30:35;17.90;99.90
40676;DHT22;26359;48.750;9.314;2022-08-02T00:33:01;17.90;99.90
40676;DHT22;26359;48.750;9.314;2022-08-02T00:35:27;17.90;99.90
40676;DHT22;26359;48.750;9.314;2022-08-02T00:37:52;17.90;99.90
40676;DHT22;26359;48.750;9.314;2022-08-02T00:40:21;17.90;99.90
40676;DHT22;26359;48.750;9.314;2022-08-02T00:45:39;17.90;99.90
40676;DHT22;26359;48.750;9.314;2022-08-02T00:48:06;17.90;99.90
40676;DHT22;26359;48.750;9.314;2022-08-02T00:50:33;17.90;99.90
40676;DHT22;26359;48.750;9.314;2022-08-02T00:52:59;17.90;99.90
40676;DHT22;26359;48.750;9.314;2022-08-02T00:55:25;17.90;99.90
40676;DHT22;26359;48.750;9.314;2022-08-02T00:57:51;17.80;99.90
40676;DHT22;26359;48.750;9.314;2022-08-02T01:00:17;17.80;99.90
40676;DHT22;26359;48.750;9.314;2022-08-02T01:02:43;17.80;99.90
40676;DHT22;26359;48.750;9.314;2022-08-02T01:05:09;17.80;99.90
40676;DHT22;26359;48.750;9.314;2022-08-02T01:07:35;17.80;99.90
40676;DHT22;26359;48.750;9.314;2022-08-02T01:10:01;17.80;99.90
40676;DHT22;26359;48.750;9.314;2022-08-02T01:12:27;17.80;99.90
40676;DHT22;26359;48.750;9.314;2022-08-02T01:14:56;17.80;99.90
40676;DHT22;26359;48.750;9.314;2022-08-02T01:17:36;17.80;99.90
40676;DHT22;26359;48.750;9.314;2022-08-02T01:28:27;17.80;99.90
40676;DHT22;26359;48.750;9.314;2022-08-02T01:31:07;17.80;99.90
40676;DHT22;26359;48.750;9.314;2022-08-02T01:33:45;17.80;99.90
40676;DHT22;26359;48.750;9.314;2022-08-02T01:36:13;17.80;99.90
40676;DHT22;26359;48.750;9.314;2022-08-02T01:38:45;17.80;99.90
40676;DHT22;26359;48.750;9.314;2022-08-02T01:41:17;17.80;99.90
40676;DHT22;26359;48.750;9.314;2022-08-02T01:43:43;17.80;99.90
40676;DHT22;26359;48.750;9.314;2022-08-02T01:46:11;17.80;99.90
40676;DHT22;26359;48.750;9.314;2022-08-02T01:48:40;17.80;99.90
40676;DHT22;26359;48.750;9.314;2022-08-02T01:51:08;17.70;99.90
40676;DHT22;26359;48.750;9.314;2022-08-02T01:53:35;17.80;99.90
40676;DHT22;26359;48.750;9.314;2022-08-02T01:56:04;17.80;99.90
40676;DHT22;26359;48.750;9.314;2022-08-02T01:58:34;17.80;99.90
40676;DHT22;26359;48.750;9.314;2022-08-02T02:01:00;17.80;99.90
40676;DHT22;26359;48.750;9.314;2022-08-02T02:03:28;17.90;99.90
40676;DHT22;26359;48.750;9.314;2022-08-02T02:05:56;17.90;99.90
40676;DHT22;26359;48.750;9.314;2022-08-02T02:08:29;17.90;99.90
40676;DHT22;26359;48.750;9.314;2022-08-02T02:10:56;17.90;99.90
40676;DHT22;26359;48.750;9.314;2022-08-02T02:13:23;17.90;99.90
40676;DHT22;26359;48.750;9.314;2022-08-02T02:15:49;17.90;99.90
40676;DHT22;26359;48.750;9.314;2022-08-02T02:18:26;17.90;99.90
40676;DHT22;26359;48.750;9.314;2022-08-02T02:20:54;17.80;99.90
40676;DHT22;26359;48.750;9.314;2022-08-02T02:23:20;17.80;99.90
40676;DHT22;26359;48.750;9.314;2022-08-02T02:25:46;17.80;99.90
40676;DHT22;26359;48.750;9.314;2022-08-02T02:28:16;17.80;99.90
40676;DHT22;26359;48.750;9.314;2022-08-02T02:30:48;17.80;99.90
40676;DHT22;26359;48.750;9.314;2022-08-02T02:33:17;17.80;99.90
40676;DHT22;26359;48.750;9.314;2022-08-02T02:35:45;17.70;99.90
40676;DHT22;26359;48.750;9.314;2022-08-02T02:38:13;17.70;99.90
40676;DHT22;26359;48.750;9.314;2022-08-02T02:40:41;17.70;99.90
40676;DHT22;26359;48.750;9.314;2022-08-02T02:43:11;17.70;99.90
40676;DHT22;26359;48.750;9.314;2022-08-02T02:45:38;17.80;99.90
40676;DHT22;26359;48.750;9.314;2022-08-02T02:48:05;17.80;99.90
40676;DHT22;26359;48.750;9.314;2022-08-02T02:50:31;17.80;99.90
40676;DHT22;26359;48.750;9.314;2022-08-02T02:52:58;17.80;99.90
40676;DHT22;26359;48.750;9.314;2022-08-02T02:55:24;17.80;99.90
40676;DHT22;26359;48.750;9.314;2022-08-02T02:57:51;17.80;99.90
40676;DHT22;26359;48.750;9.314;2022-08-02T03:00:17;17.90;99.90
40676;DHT22;26359;48.750;9.314;2022-08-02T03:02:43;17.80;99.90
40676;DHT22;26359;48.750;9.314;2022-08-02T03:05:11;17.90;99.90
40676;DHT22;26359;48.750;9.314;2022-08-02T03:07:37;17.90;99.90
40676;DHT22;26359;48.750;9.314;2022-08-02T03:10:05;17.80;99.90
40676;DHT22;26359;48.750;9.314;2022-08-02T03:12:32;17.90;99.90
40676;DHT22;26359;48.750;9.314;2022-08-02T03:14:59;17.80;99.90
40676;DHT22;26359;48.750;9.314;2022-08-02T03:17:24;17.80;99.90
40676;DHT22;26359;48.750;9.314;2022-08-02T03:19:50;17.80;99.90
40676;DHT22;26359;48.750;9.314;2022-08-02T03:22:15;17.70;99.90
40676;DHT22;26359;48.750;9.314;2022-08-02T03:24:41;17.70;99.90
40676;DHT22;26359;48.750;9.314;2022-08-02T03:27:07;17.60;99.90
40676;DHT22;26359;48.750;9.314;2022-08-02T03:29:32;17.60;99.90
40676;DHT22;26359;48.750;9.314;2022-08-02T03:31:58;17.60;99.90
40676;DHT22;26359;48.750;9.314;2022-08-02T03:34:23;17.60;99.90
40676;DHT22;26359;48.750;9.314;2022-08-02T03:36:51;17.60;99.90
40676;DHT22;26359;48.750;9.314;2022-08-02T03:39:19;17.60;99.90
40676;DHT22;26359;48.750;9.314;2022-08-02T03:41:46;17.60;99.90
40676;DHT22;26359;48.750;9.314;2022-08-02T03:44:14;17.60;99.90
40676;DHT22;26359;48.750;9.314;2022-08-02T03:46:41;17.60;99.90
40676;DHT22;26359;48.750;9.314;2022-08-02T03:49:07;17.50;99.90
40676;DHT22;26359;48.750;9.314;2022-08-02T03:51:35;17.50;99.90
40676;DHT22;26359;48.750;9.314;2022-08-02T03:54:01;17.50;99.90
40676;DHT22;26359;48.750;9.314;2022-08-02T03:56:27;17.50;99.90
40676;DHT22;26359;48.750;9.314;2022-08-02T03:59:05;17.50;99.90
40676;DHT22;26359;48.750;9.314;2022-08-02T04:01:31;17.50;99.90
40676;DHT22;26359;48.750;9.314;2022-08-02T04:03:56;17.50;99.90
40676;DHT22;26359;48.750;9.314;2022-08-02T04:06:22;17.50;99.90
40676;DHT22;26359;48.750;9.314;2022-08-02T04:08:47;17.60;99.90
40676;DHT22;26359;48.750;9.314;2022-08-02T04:11:13;17.60;99.90
40676;DHT22;26359;48.750;9.314;2022-08-02T04:14:02;17.60;99.90
40676;DHT22;26359;48.750;9.314;2022-08-02T04:16:37;17.60;99.90
40676;DHT22;26359;48.750;9.314;2022-08-02T04:19:05;17.60;99.90
40676;DHT22;26359;48.750;9.314;2022-08-02T04:21:36;17.60;99.90
40676;DHT22;26359;48.750;9.314;2022-08-02T04:24:03;17.60;99.90
40676;DHT22;26359;48.750;9.314;2022-08-02T04:26:31;17.60;99.90
40676;DHT22;26359;48.750;9.314;2022-08-02T04:28:58;17.60;99.90
40676;DHT22;26359;48.750;9.314;2022-08-02T04:31:24;17.60;99.90
40676;DHT22;26359;48.750;9.314;2022-08-02T04:33:51;17.60;99.90
40676;DHT22;26359;48.750;9.314;2022-08-02T04:36:17;17.60;99.90
40676;DHT22;26359;48.750;9.314;2022-08-02T04:38:42;17.60;99.90
40676;DHT22;26359;48.750;9.314;2022-08-02T04:41:08;17.70;99.90
40676;DHT22;26359;48.750;9.314;2022-08-02T04:43:34;17.70;99.90
40676;DHT22;26359;48.750;9.314;2022-08-02T04:45:59;17.70;99.90
40676;DHT22;26359;48.750;9.314;2022-08-02T04:48:27;17.70;99.90
40676;DHT22;26359;48.750;9.314;2022-08-02T04:50:53;17.70;99.90
40676;DHT22;26359;48.750;9.314;2022-08-02T04:53:19;17.80;99.90
40676;DHT22;26359;48.750;9.314;2022-08-02T04:55:45;17.80;99.90
40676;DHT22;26359;48.750;9.314;2022-08-02T04:58:11;17.90;99.90
40676;DHT22;26359;48.750;9.314;2022-08-02T05:00:37;17.80;99.90
40676;DHT22;26359;48.750;9.314;2022-08-02T05:03:02;17.90;99.90
40676;DHT22;26359;48.750;9.314;2022-08-02T05:05:28;17.90;99.90
40676;DHT22;26359;48.750;9.314;2022-08-02T05:07:54;17.90;99.90
40676;DHT22;26359;48.750;9.314;2022-08-02T05:10:20;17.80;99.90
40676;DHT22;26359;48.750;9.314;2022-08-02T05:12:46;17.90;99.90
40676;DHT22;26359;48.750;9.314;2022-08-02T05:15:12;17.80;99.90
40676;DHT22;26359;48.750;9.314;2022-08-02T05:17:41;17.90;99.90
40676;DHT22;26359;48.750;9.314;2022-08-02T05:20:07;17.90;99.90
40676;DHT22;26359;48.750;9.314;2022-08-02T05:22:32;17.90;99.90
40676;DHT22;26359;48.750;9.314;2022-08-02T05:24:58;17.90;99.90
40676;DHT22;26359;48.750;9.314;2022-08-02T05:27:24;17.90;99.90
40676;DHT22;26359;48.750;9.314;2022-08-02T05:29:49;17.90;99.90
40676;DHT22;26359;48.750;9.314;2022-08-02T05:32:16;17.90;99.90
40676;DHT22;26359;48.750;9.314;2022-08-02T05:34:42;18.00;99.90
40676;DHT22;26359;48.750;9.314;2022-08-02T05:37:08;17.90;99.90
40676;DHT22;26359;48.750;9.314;2022-08-02T05:39:33;17.90;99.90
40676;DHT22;26359;48.750;9.314;2022-08-02T05:41:59;17.80;99.90
40676;DHT22;26359;48.750;9.314;2022-08-02T05:44:24;17.80;99.90
40676;DHT22;26359;48.750;9.314;2022-08-02T05:46:50;17.90;99.90
40676;DHT22;26359;48.750;9.314;2022-08-02T05:49:15;17.90;99.90
40676;DHT22;26359;48.750;9.314;2022-08-02T05:52:08;17.90;99.90
40676;DHT22;26359;48.750;9.314;2022-08-02T05:57:09;17.90;99.90
40676;DHT22;26359;48.750;9.314;2022-08-02T06:00:00;17.90;99.90
40676;DHT22;26359;48.750;9.314;2022-08-02T06:05:18;17.80;99.90
40676;DHT22;26359;48.750;9.314;2022-08-02T06:07:45;17.90;99.90
40676;DHT22;26359;48.750;9.314;2022-08-02T06:10:13;18.00;99.90
40676;DHT22;26359;48.750;9.314;2022-08-02T06:12:50;18.00;99.90
40676;DHT22;26359;48.750;9.314;2022-08-02T06:15:17;18.00;99.90
40676;DHT22;26359;48.750;9.314;2022-08-02T06:17:43;18.00;99.90
40676;DHT22;26359;48.750;9.314;2022-08-02T06:20:13;18.00;99.90
40676;DHT22;26359;48.750;9.314;2022-08-02T06:22:41;18.10;99.90
40676;DHT22;26359;48.750;9.314;2022-08-02T06:25:12;18.10;99.90
40676;DHT22;26359;48.750;9.314;2022-08-02T06:27:39;18.10;99.90
40676;DHT22;26359;48.750;9.314;2022-08-02T06:30:06;18.20;99.90
40676;DHT22;26359;48.750;9.314;2022-08-02T06:32:33;18.10;99.90
40676;DHT22;26359;48.750;9.314;2022-08-02T06:34:59;18.10;99.90
40676;DHT22;26359;48.750;9.314;2022-08-02T06:37:37;18.20;99.90
40676;DHT22;26359;48.750;9.314;2022-08-02T06:40:13;18.30;99.90
40676;DHT22;26359;48.750;9.314;2022-08-02T06:45:28;18.40;99.90
40676;DHT22;26359;48.750;9.314;2022-08-02T06:47:54;18.40;99.90
40676;DHT22;26359;48.750;9.314;2022-08-02T06:50:19;18.40;99.90
40676;DHT22;26359;48.750;9.314;2022-08-02T06:52:45;18.50;99.90
40676;DHT22;26359;48.750;9.314;2022-08-02T06:55:11;18.50;99.90
40676;DHT22;26359;48.750;9.314;2022-08-02T06:57:36;18.60;99.90
40676;DHT22;26359;48.750;9.314;2022-08-02T07:00:04;18.70;99.90
40676;DHT22;26359;48.750;9.314;2022-08-02T07:02:37;18.70;99.90
40676;DHT22;26359;48.750;9.314;2022-08-02T07:05:05;18.70;99.90
40676;DHT22;26359;48.750;9.314;2022-08-02T07:07:31;18.80;99.90
40676;DHT22;26359;48.750;9.314;2022-08-02T07:09:58;18.80;99.90
40676;DHT22;26359;48.750;9.314;2022-08-02T07:12:24;18.80;99.90
40676;DHT22;26359;48.750;9.314;2022-08-02T07:14:49;18.90;99.90
40676;DHT22;26359;48.750;9.314;2022-08-02T07:17:15;19.00;99.90
40676;DHT22;26359;48.750;9.314;2022-08-02T07:19:41;18.90;99.90
40676;DHT22;26359;48.750;9.314;2022-08-02T07:22:06;18.90;99.90
40676;DHT22;26359;48.750;9.314;2022-08-02T07:24:32;19.00;99.90
40676;DHT22;26359;48.750;9.314;2022-08-02T07:26:58;19.00;99.90
40676;DHT22;26359;48.750;9.314;2022-08-02T07:29:24;19.10;99.90
40676;DHT22;26359;48.750;9.314;2022-08-02T07:31:50;19.10;99.90
40676;DHT22;26359;48.750;9.314;2022-08-02T07:34:15;19.30;99.90
40676;DHT22;26359;48.750;9.314;2022-08-02T07:36:41;19.30;99.90
40676;DHT22;26359;48.750;9.314;2022-08-02T07:39:06;19.30;99.90
40676;DHT22;26359;48.750;9.314;2022-08-02T07:41:33;19.30;99.90
40676;DHT22;26359;48.750;9.314;2022-08-02T07:43:58;19.40;99.90
40676;DHT22;26359;48.750;9.314;2022-08-02T07:46:24;19.50;99.90
40676;DHT22;26359;48.750;9.314;2022-08-02T07:48:50;19.50;99.90
40676;DHT22;26359;48.750;9.314;2022-08-02T07:51:19;19.60;99.90
40676;DHT22;26359;48.750;9.314;2022-08-02T07:53:45;19.60;99.90
40676;DHT22;26359;48.750;9.314;2022-08-02T07:56:10;19.80;99.90
40676;DHT22;26359;48.750;9.314;2022-08-02T07:58:36;19.90;99.90
40676;DHT22;26359;48.750;9.314;2022-08-02T08:01:01;20.00;99.90
40676;DHT22;26359;48.750;9.314;2022-08-02T08:03:27;20.00;99.90
40676;DHT22;26359;48.750;9.314;2022-08-02T08:05:53;20.10;99.90
40676;DHT22;26359;48.750;9.314;2022-08-02T08:08:19;20.20;99.90
40676;DHT22;26359;48.750;9.314;2022-08-02T08:10:45;20.30;99.90
40676;DHT22;26359;48.750;9.314;2022-08-02T08:13:11;20.40;99.90
40676;DHT22;26359;48.750;9.314;2022-08-02T08:15:36;20.40;99.90
40676;DHT22;26359;48.750;9.314;2022-08-02T08:18:02;20.40;99.90
40676;DHT22;26359;48.750;9.314;2022-08-02T08:20:28;20.50;99.90
40676;DHT22;26359;48.750;9.314;2022-08-02T08:22:53;20.60;99.90
40676;DHT22;26359;48.750;9.314;2022-08-02T08:25:19;20.60;99.90
40676;DHT22;26359;48.750;9.314;2022-08-02T08:27:49;20.60;99.90
40676;DHT22;26359;48.750;9.314;2022-08-02T08:30:15;20.80;99.90
40676;DHT22;26359;48.750;9.314;2022-08-02T08:32:41;20.90;99.90
40676;DHT22;26359;48.750;9.314;2022-08-02T08:35:06;20.90;99.90
40676;DHT22;26359;48.750;9.314;2022-08-02T08:37:36;20.80;99.90
40676;DHT22;26359;48.750;9.314;2022-08-02T08:40:04;20.90;99.90
40676;DHT22;26359;48.750;9.314;2022-08-02T08:42:30;21.00;99.90
40676;DHT22;26359;48.750;9.314;2022-08-02T08:44:57;21.00;99.90
40676;DHT22;26359;48.750;9.314;2022-08-02T08:47:25;21.20;99.90
40676;DHT22;26359;48.750;9.314;2022-08-02T08:49:54;21.20;99.90
40676;DHT22;26359;48.750;9.314;2022-08-02T08:52:22;21.20;99.90
40676;DHT22;26359;48.750;9.314;2022-08-02T08:54:50;21.40;99.90
40676;DHT22;26359;48.750;9.314;2022-08-02T08:57:17;21.60;99.90
40676;DHT22;26359;48.750;9.314;2022-08-02T08:59:44;21.60;99.90
40676;DHT22;26359;48.750;9.314;2022-08-02T09:02:10;21.80;99.90
40676;DHT22;26359;48.750;9.314;2022-08-02T09:04:36;21.90;99.90
40676;DHT22;26359;48.750;9.314;2022-08-02T09:07:02;21.90;99.90
40676;DHT22;26359;48.750;9.314;2022-08-02T09:09:27;21.90;99.90
40676;DHT22;26359;48.750;9.314;2022-08-02T09:11:53;21.90;99.90
40676;DHT22;26359;48.750;9.314;2022-08-02T09:14:26;22.00;99.90
40676;DHT22;26359;48.750;9.314;2022-08-02T09:17:05;22.10;99.90
40676;DHT22;26359;48.750;9.314;2022-08-02T09:19:31;22.10;99.90
40676;DHT22;26359;48.750;9.314;2022-08-02T09:22:09;22.20;99.90
40676;DHT22;26359;48.750;9.314;2022-08-02T09:24:48;22.30;99.90
40676;DHT22;26359;48.750;9.314;2022-08-02T09:27:19;22.40;99.90
40676;DHT22;26359;48.750;9.314;2022-08-02T09:29:46;22.50;99.90
40676;DHT22;26359;48.750;9.314;2022-08-02T09:32:12;22.60;99.90
40676;DHT22;26359;48.750;9.314;2022-08-02T09:37:26;22.60;99.90
40676;DHT22;26359;48.750;9.314;2022-08-02T09:39:52;22.80;99.90
40676;DHT22;26359;48.750;9.314;2022-08-02T09:42:18;22.90;99.90
40676;DHT22;26359;48.750;9.314;2022-08-02T09:44:58;23.10;99.90
40676;DHT22;26359;48.750;9.314;2022-08-02T09:47:24;23.20;99.90
40676;DHT22;26359;48.750;9.314;2022-08-02T09:49:50;23.30;99.90
40676;DHT22;26359;48.750;9.314;2022-08-02T09:52:25;23.40;99.90
40676;DHT22;26359;48.750;9.314;2022-08-02T09:54:52;23.40;99.90
40676;DHT22;26359;48.750;9.314;2022-08-02T09:57:26;23.60;99.90
40676;DHT22;26359;48.750;9.314;2022-08-02T09:59:54;23.80;99.90
40676;DHT22;26359;48.750;9.314;2022-08-02T10:02:20;23.90;99.90
40676;DHT22;26359;48.750;9.314;2022-08-02T10:04:45;23.80;99.90
40676;DHT22;26359;48.750;9.314;2022-08-02T10:07:11;23.90;99.90
40676;DHT22;26359;48.750;9.314;2022-08-02T10:09:37;24.00;99.90
40676;DHT22;26359;48.750;9.314;2022-08-02T10:12:03;24.20;99.90
40676;DHT22;26359;48.750;9.314;2022-08-02T10:14:29;24.40;99.90
40676;DHT22;26359;48.750;9.314;2022-08-02T10:16:56;24.50;99.90
40676;DHT22;26359;48.750;9.314;2022-08-02T10:19:23;24.60;99.90
40676;DHT22;26359;48.750;9.314;2022-08-02T10:21:56;24.70;99.90
40676;DHT22;26359;48.750;9.314;2022-08-02T10:24:26;24.80;99.90
40676;DHT22;26359;48.750;9.314;2022-08-02T10:26:52;24.90;99.90
40676;DHT22;26359;48.750;9.314;2022-08-02T10:29:28;25.10;99.90
40676;DHT22;26359;48.750;9.314;2022-08-02T10:34:35;25.40;99.90
40676;DHT22;26359;48.750;9.314;2022-08-02T10:37:03;25.50;99.90
40676;DHT22;26359;48.750;9.314;2022-08-02T10:39:39;25.60;99.90
40676;DHT22;26359;48.750;9.314;2022-08-02T10:42:05;25.90;99.90
40676;DHT22;26359;48.750;9.314;2022-08-02T10:44:32;25.90;99.90
40676;DHT22;26359;48.750;9.314;2022-08-02T10:49:58;25.70;99.90
40676;DHT22;26359;48.750;9.314;2022-08-02T10:52:25;25.70;99.90
40676;DHT22;26359;48.750;9.314;2022-08-02T10:55:11;25.90;99.90
40676;DHT22;26359;48.750;9.314;2022-08-02T10:57:36;26.20;99.90
40676;DHT22;26359;48.750;9.314;2022-08-02T11:02:47;27.10;99.90
40676;DHT22;26359;48.750;9.314;2022-08-02T11:07:46;27.00;99.90
40676;DHT22;26359;48.750;9.314;2022-08-02T11:10:31;26.80;99.90
40676;DHT22;26359;48.750;9.314;2022-08-02T11:13:09;26.90;99.90
40676;DHT22;26359;48.750;9.314;2022-08-02T11:23:50;27.70;99.90
40676;DHT22;26359;48.750;9.314;2022-08-02T11:29:01;27.70;99.90
40676;DHT22;26359;48.750;9.314;2022-08-02T11:31:27;27.80;99.90
40676;DHT22;26359;48.750;9.314;2022-08-02T11:33:53;27.80;99.90
40676;DHT22;26359;48.750;9.314;2022-08-02T11:36:19;27.70;99.90
40676;DHT22;26359;48.750;9.314;2022-08-02T11:38:44;27.50;99.90
40676;DHT22;26359;48.750;9.314;2022-08-02T11:41:20;27.40;99.90
40676;DHT22;26359;48.750;9.314;2022-08-02T11:43:46;27.10;99.90
40676;DHT22;26359;48.750;9.314;2022-08-02T11:46:12;27.20;99.90
40676;DHT22;26359;48.750;9.314;2022-08-02T11:48:40;27.50;99.90
40676;DHT22;26359;48.750;9.314;2022-08-02T11:51:11;27.70;99.90
40676;DHT22;26359;48.750;9.314;2022-08-02T11:53:48;28.00;99.90
40676;DHT22;26359;48.750;9.314;2022-08-02T11:56:15;28.40;99.90
40676;DHT22;26359;48.750;9.314;2022-08-02T11:58:59;28.90;99.90
40676;DHT22;26359;48.750;9.314;2022-08-02T12:01:25;29.00;99.90
40676;DHT22;26359;48.750;9.314;2022-08-02T12:03:51;29.10;99.90
40676;DHT22;26359;48.750;9.314;2022-08-02T12:06:17;29.30;99.90
40676;DHT22;26359;48.750;9.314;2022-08-02T12:08:43;29.50;99.90
40676;DHT22;26359;48.750;9.314;2022-08-02T12:11:08;29.50;99.90
40676;DHT22;26359;48.750;9.314;2022-08-02T12:13:44;29.60;99.90
40676;DHT22;26359;48.750;9.314;2022-08-02T12:16:11;29.70;99.90
40676;DHT22;26359;48.750;9.314;2022-08-02T12:18:56;29.70;99.90
40676;DHT22;26359;48.750;9.314;2022-08-02T12:21:41;29.60;99.90
40676;DHT22;26359;48.750;9.314;2022-08-02T12:24:06;29.50;99.90
40676;DHT22;26359;48.750;9.314;2022-08-02T12:26:43;29.20;99.90
40676;DHT22;26359;48.750;9.314;2022-08-02T12:29:09;29.40;99.90
40676;DHT22;26359;48.750;9.314;2022-08-02T12:31:44;29.30;99.90
40676;DHT22;26359;48.750;9.314;2022-08-02T12:34:16;29.20;99.90
40676;DHT22;26359;48.750;9.314;2022-08-02T12:36:44;28.70;99.90
40676;DHT22;26359;48.750;9.314;2022-08-02T12:39:41;28.80;99.90
40676;DHT22;26359;48.750;9.314;2022-08-02T12:42:08;28.60;99.90
40676;DHT22;26359;48.750;9.314;2022-08-02T12:44:36;28.60;99.90
40676;DHT22;26359;48.750;9.314;2022-08-02T12:47:07;28.80;99.90
40676;DHT22;26359;48.750;9.314;2022-08-02T12:49:36;28.90;99.90
40676;DHT22;26359;48.750;9.314;2022-08-02T12:52:17;29.10;99.90
40676;DHT22;26359;48.750;9.314;2022-08-02T12:54:43;29.40;99.90
40676;DHT22;26359;48.750;9.314;2022-08-02T12:57:13;29.70;99.90
40676;DHT22;26359;48.750;9.314;2022-08-02T12:59:40;29.50;99.90
40676;DHT22;26359;48.750;9.314;2022-08-02T13:02:10;29.70;99.90
40676;DHT22;26359;48.750;9.314;2022-08-02T13:04:36;29.70;99.90
40676;DHT22;26359;48.750;9.314;2022-08-02T13:07:03;30.00;99.90
40676;DHT22;26359;48.750;9.314;2022-08-02T13:09:41;30.10;99.90
40676;DHT22;26359;48.750;9.314;2022-08-02T13:12:09;30.20;99.90
40676;DHT22;26359;48.750;9.314;2022-08-02T13:14:35;30.40;99.90
40676;DHT22;26359;48.750;9.314;2022-08-02T13:17:00;30.40;99.90
40676;DHT22;26359;48.750;9.314;2022-08-02T13:19:26;30.30;99.90
40676;DHT22;26359;48.750;9.314;2022-08-02T13:21:52;30.50;99.90
40676;DHT22;26359;48.750;9.314;2022-08-02T13:24:18;30.70;99.90
40676;DHT22;26359;48.750;9.314;2022-08-02T13:26:44;30.90;99.90
40676;DHT22;26359;48.750;9.314;2022-08-02T13:29:11;31.00;99.90
40676;DHT22;26359;48.750;9.314;2022-08-02T13:31:37;30.80;99.90
40676;DHT22;26359;48.750;9.314;2022-08-02T13:34:07;30.80;99.90
40676;DHT22;26359;48.750;9.314;2022-08-02T13:36:34;30.80;99.90
40676;DHT22;26359;48.750;9.314;2022-08-02T13:39:00;30.80;99.90
40676;DHT22;26359;48.750;9.314;2022-08-02T13:41:26;30.80;99.90
40676;DHT22;26359;48.750;9.314;2022-08-02T13:43:52;30.90;99.90
40676;DHT22;26359;48.750;9.314;2022-08-02T13:46:17;30.90;99.90
40676;DHT22;26359;48.750;9.314;2022-08-02T13:48:43;30.80;99.90
40676;DHT22;26359;48.750;9.314;2022-08-02T13:51:08;30.80;99.90
40676;DHT22;26359;48.750;9.314;2022-08-02T13:53:38;30.60;99.90
40676;DHT22;26359;48.750;9.314;2022-08-02T13:56:03;30.50;99.90
40676;DHT22;26359;48.750;9.314;2022-08-02T13:58:29;30.50;99.90
40676;DHT22;26359;48.750;9.314;2022-08-02T14:00:54;30.50;99.90
40676;DHT22;26359;48.750;9.314;2022-08-02T14:03:20;30.60;99.90
40676;DHT22;26359;48.750;9.314;2022-08-02T14:05:45;30.60;99.90
40676;DHT22;26359;48.750;9.314;2022-08-02T14:08:11;30.50;99.90
40676;DHT22;26359;48.750;9.314;2022-08-02T14:10:37;30.40;99.90
40676;DHT22;26359;48.750;9.314;2022-08-02T14:13:03;30.30;99.90
40676;DHT22;26359;48.750;9.314;2022-08-02T14:15:28;30.40;99.90
40676;DHT22;26359;48.750;9.314;2022-08-02T14:17:54;30.20;99.90
40676;DHT22;26359;48.750;9.314;2022-08-02T14:20:19;30.40;99.90
40676;DHT22;26359;48.750;9.314;2022-08-02T14:22:45;30.40;99.90
40676;DHT22;26359;48.750;9.314;2022-08-02T14:25:10;30.20;99.90
40676;DHT22;26359;48.750;9.314;2022-08-02T14:27:36;30.10;99.90
40676;DHT22;26359;48.750;9.314;2022-08-02T14:30:02;30.00;99.90
40676;DHT22;26359;48.750;9.314;2022-08-02T14:32:27;30.20;99.90
40676;DHT22;26359;48.750;9.314;2022-08-02T14:34:53;30.20;99.90
40676;DHT22;26359;48.750;9.314;2022-08-02T14:37:19;30.10;99.40
40676;DHT22;26359;48.750;9.314;2022-08-02T14:39:44;30.00;99.90
40676;DHT22;26359;48.750;9.314;2022-08-02T14:42:10;29.90;99.70
40676;DHT22;26359;48.750;9.314;2022-08-02T14:44:35;29.80;99.90
40676;DHT22;26359;48.750;9.314;2022-08-02T14:47:01;29.90;99.90
40676;DHT22;26359;48.750;9.314;2022-08-02T14:49:26;30.00;99.90
40676;DHT22;26359;48.750;9.314;2022-08-02T14:51:53;30.00;99.90
40676;DHT22;26359;48.750;9.314;2022-08-02T14:54:19;29.80;99.50
40676;DHT22;26359;48.750;9.314;2022-08-02T14:56:44;29.70;98.90
40676;DHT22;26359;48.750;9.314;2022-08-02T14:59:10;29.40;98.40
40676;DHT22;26359;48.750;9.314;2022-08-02T15:01:36;29.20;99.90
40676;DHT22;26359;48.750;9.314;2022-08-02T15:04:01;29.00;99.90
40676;DHT22;26359;48.750;9.314;2022-08-02T15:06:27;28.90;98.70
40676;DHT22;26359;48.750;9.314;2022-08-02T15:08:57;28.90;99.60
40676;DHT22;26359;48.750;9.314;2022-08-02T15:11:23;28.90;99.70
40676;DHT22;26359;48.750;9.314;2022-08-02T15:13:48;29.00;99.30
40676;DHT22;26359;48.750;9.314;2022-08-02T15:16:14;29.20;96.80
40676;DHT22;26359;48.750;9.314;2022-08-02T15:18:40;29.40;97.70
40676;DHT22;26359;48.750;9.314;2022-08-02T15:21:05;29.30;99.90
40676;DHT22;26359;48.750;9.314;2022-08-02T15:23:31;29.40;99.00
40676;DHT22;26359;48.750;9.314;2022-08-02T15:25:56;29.40;98.50
40676;DHT22;26359;48.750;9.314;2022-08-02T15:28:22;29.50;97.60
40676;DHT22;26359;48.750;9.314;2022-08-02T15:30:49;29.50;97.40
40676;DHT22;26359;48.750;9.314;2022-08-02T15:33:14;29.50;98.20
40676;DHT22;26359;48.750;9.314;2022-08-02T15:35:40;29.50;98.90
40676;DHT22;26359;48.750;9.314;2022-08-02T15:38:06;29.60;99.90
40676;DHT22;26359;48.750;9.314;2022-08-02T15:40:31;29.80;98.70
40676;DHT22;26359;48.750;9.314;2022-08-02T15:42:57;29.70;97.50
40676;DHT22;26359;48.750;9.314;2022-08-02T15:45:23;29.70;98.60
40676;DHT22;26359;48.750;9.314;2022-08-02T15:47:49;29.70;97.70
40676;DHT22;26359;48.750;9.314;2022-08-02T15:50:15;29.90;97.80
40676;DHT22;26359;48.750;9.314;2022-08-02T15:52:40;29.90;98.30
40676;DHT22;26359;48.750;9.314;2022-08-02T15:55:06;30.00;98.50
40676;DHT22;26359;48.750;9.314;2022-08-02T15:57:32;30.00;97.90
40676;DHT22;26359;48.750;9.314;2022-08-02T15:59:57;30.10;97.20
40676;DHT22;26359;48.750;9.314;2022-08-02T16:02:23;30.20;96.80
40676;DHT22;26359;48.750;9.314;2022-08-02T16:04:48;30.20;97.10
40676;DHT22;26359;48.750;9.314;2022-08-02T16:07:14;30.20;97.00
40676;DHT22;26359;48.750;9.314;2022-08-02T16:09:40;30.20;96.40
40676;DHT22;26359;48.750;9.314;2022-08-02T16:12:06;30.20;95.90
40676;DHT22;26359;48.750;9.314;2022-08-02T16:14:32;30.30;95.20
40676;DHT22;26359;48.750;9.314;2022-08-02T16:16:58;30.40;94.70